Time;durP1;ratioP1;P1;durP2;ratioP2;P2;SDS_P1;SDS_P2;PMS_P1;PMS_P2;Temp;Humidity;BMP_temperature;BMP_pressure;BME280_temperature;BME280_humidity;BME280_pressure;Samples;Min_cycle;Max_cycle;Signal;HPM_P1;HPM_P2
2022/07/16 00:02:18;;;;;;;6.53;5.77;;;18.60;51.10;;;;;;5077856;28;20463;-49
2022/07/16 00:04:44;;;;;;;5.47;4.97;;;18.50;51.30;;;;;;5078743;28;20429;-48
2022/07/16 00:07:09;;;;;;;5.37;4.87;;;18.50;51.30;;;;;;5077969;28;20170;-49
2022/07/16 00:09:35;;;;;;;5.87;5.37;;;18.50;51.40;;;;;;5078111;28;20506;-47
2022/07/16 00:12:00;;;;;;;6.73;5.00;;;18.50;51.60;;;;;;5077818;28;20280;-48
2022/07/16 00:14:26;;;;;;;5.90;5.40;;;18.50;51.70;;;;;;5077347;28;20189;-48
2022/07/16 00:16:52;;;;;;;5.97;5.47;;;18.40;51.80;;;;;;5076923;28;20340;-48
2022/07/16 00:19:20;;;;;;;6.37;5.77;;;18.40;52.10;;;;;;5076318;28;20247;-49
2022/07/16 00:21:49;;;;;;;6.00;5.50;;;18.40;52.20;;;;;;5077156;28;20509;-50
2022/07/16 00:24:15;;;;;;;6.10;5.40;;;18.40;52.30;;;;;;5077928;28;20715;-50
2022/07/16 00:26:41;;;;;;;6.13;5.63;;;18.40;52.50;;;;;;5078489;28;20439;-47
2022/07/16 00:29:06;;;;;;;5.80;5.20;;;18.40;52.60;;;;;;5078388;28;20926;-49
2022/07/16 00:31:32;;;;;;;5.90;5.40;;;18.30;52.60;;;;;;5076498;28;20585;-47
2022/07/16 00:33:58;;;;;;;5.37;4.60;;;18.30;52.70;;;;;;5078023;28;20177;-49
2022/07/16 00:36:23;;;;;;;5.40;4.90;;;18.30;52.90;;;;;;5078002;28;20701;-51
2022/07/16 00:38:49;;;;;;;5.83;5.23;;;18.30;52.90;;;;;;5077788;28;20224;-48
2022/07/16 00:41:18;;;;;;;4.17;3.87;;;18.20;52.90;;;;;;5077512;28;20170;-46
2022/07/16 00:43:57;;;;;;;5.13;4.63;;;18.20;53.00;;;;;;5078103;28;20530;-47
2022/07/16 00:46:23;;;;;;;5.00;4.47;;;18.20;53.00;;;;;;5077715;28;20878;-48
2022/07/16 00:48:49;;;;;;;5.80;5.30;;;18.20;53.10;;;;;;5077824;28;20465;-52
2022/07/16 00:51:15;;;;;;;5.33;4.83;;;18.10;53.20;;;;;;5076867;28;20190;-52
2022/07/16 00:53:41;;;;;;;5.73;4.90;;;18.10;53.30;;;;;;5077262;28;20248;-51
2022/07/16 00:56:09;;;;;;;5.53;4.63;;;18.10;53.50;;;;;;5077400;28;20839;-50
2022/07/16 00:58:37;;;;;;;5.40;5.00;;;18.00;53.50;;;;;;5076469;28;20466;-53
2022/07/16 01:01:03;;;;;;;5.13;4.63;;;18.00;53.70;;;;;;5077390;28;20421;-48
2022/07/16 01:03:30;;;;;;;4.80;4.40;;;17.90;53.70;;;;;;5077544;28;20429;-51
2022/07/16 01:05:57;;;;;;;5.50;5.00;;;17.90;53.80;;;;;;5078230;28;20490;-50
2022/07/16 01:08:24;;;;;;;5.03;4.60;;;17.90;53.90;;;;;;5077943;28;20470;-49
2022/07/16 01:10:50;;;;;;;5.60;5.00;;;17.90;54.10;;;;;;5077935;28;20462;-48
2022/07/16 01:13:16;;;;;;;5.07;4.67;;;17.80;54.20;;;;;;5076418;28;20457;-48
2022/07/16 01:15:42;;;;;;;6.27;5.20;;;17.80;54.30;;;;;;5056023;28;20436;-48
2022/07/16 01:18:08;;;;;;;5.13;4.73;;;17.80;54.40;;;;;;5062851;28;20482;-50
2022/07/16 01:20:42;;;;;;;5.73;5.23;;;17.80;54.50;;;;;;5077967;28;20195;-50
2022/07/16 01:23:08;;;;;;;5.63;5.13;;;17.80;54.60;;;;;;5077270;28;20554;-48
2022/07/16 01:25:34;;;;;;;5.87;5.23;;;17.70;54.70;;;;;;5077840;28;20436;-50
2022/07/16 01:28:00;;;;;;;5.40;4.90;;;17.70;54.90;;;;;;5077564;28;20513;-48
2022/07/16 01:30:25;;;;;;;7.93;5.40;;;17.70;55.10;;;;;;5077490;28;20197;-49
2022/07/16 01:32:51;;;;;;;6.13;5.53;;;17.70;55.30;;;;;;5077630;28;20514;-50
2022/07/16 01:35:18;;;;;;;6.83;6.13;;;17.70;55.40;;;;;;5076926;28;20185;-47
2022/07/16 01:37:43;;;;;;;5.83;5.33;;;17.60;55.50;;;;;;5077433;28;20499;-48
2022/07/16 01:40:09;;;;;;;6.07;5.43;;;17.60;55.60;;;;;;5077137;28;20435;-50
2022/07/16 01:42:35;;;;;;;6.60;6.00;;;17.60;55.80;;;;;;5077150;28;20194;-47
2022/07/16 01:45:01;;;;;;;6.90;5.70;;;17.60;55.90;;;;;;5077592;28;20186;-49
2022/07/16 01:47:26;;;;;;;5.73;5.23;;;17.50;56.00;;;;;;5077563;28;20181;-47
2022/07/16 01:49:52;;;;;;;6.17;5.67;;;17.50;56.20;;;;;;5077660;28;20812;-46
2022/07/16 01:52:21;;;;;;;6.90;5.80;;;17.50;56.40;;;;;;5076819;28;20440;-48
2022/07/16 01:54:48;;;;;;;6.07;5.53;;;17.50;56.50;;;;;;5077124;28;20279;-50
2022/07/16 01:57:14;;;;;;;5.83;5.33;;;17.50;56.60;;;;;;5076892;28;20538;-49
2022/07/16 01:59:41;;;;;;;5.83;5.33;;;17.40;56.60;;;;;;5076433;28;20509;-49
2022/07/16 02:02:06;;;;;;;6.47;5.87;;;17.40;56.80;;;;;;5076821;28;20424;-53
2022/07/16 02:04:32;;;;;;;5.80;5.30;;;17.40;56.90;;;;;;5077048;28;20484;-49
2022/07/16 02:06:58;;;;;;;6.17;5.67;;;17.40;57.00;;;;;;5077565;28;20184;-48
2022/07/16 02:09:24;;;;;;;6.27;5.63;;;17.40;57.10;;;;;;5081596;28;20518;-49
2022/07/16 02:11:50;;;;;;;6.40;5.90;;;17.40;57.20;;;;;;5081690;28;20182;-50
2022/07/16 02:14:15;;;;;;;6.40;5.90;;;17.40;57.40;;;;;;5080464;28;20201;-48
2022/07/16 02:16:41;;;;;;;5.57;5.17;;;17.40;57.60;;;;;;5081377;28;20619;-50
2022/07/16 02:19:07;;;;;;;6.37;5.77;;;17.40;57.80;;;;;;5080584;28;20236;-51
2022/07/16 02:21:32;;;;;;;6.90;5.97;;;17.30;57.70;;;;;;5080534;28;20266;-48
2022/07/16 02:23:58;;;;;;;5.97;5.47;;;17.30;58.00;;;;;;5080301;28;20425;-48
2022/07/16 02:26:24;;;;;;;6.47;5.87;;;17.30;58.10;;;;;;5078735;28;20248;-47
2022/07/16 02:28:50;;;;;;;5.83;5.37;;;17.30;58.20;;;;;;5078586;28;20435;-49
2022/07/16 02:31:16;;;;;;;6.10;5.60;;;17.30;58.40;;;;;;5078640;28;20490;-46
2022/07/16 02:33:41;;;;;;;7.40;6.80;;;17.20;58.20;;;;;;5078434;28;20540;-47
2022/07/16 02:36:08;;;;;;;8.97;6.03;;;17.20;58.50;;;;;;5079482;28;20193;-49
2022/07/16 02:38:34;;;;;;;5.87;5.37;;;17.20;58.70;;;;;;5078893;28;20487;-47
2022/07/16 02:40:59;;;;;;;6.13;5.63;;;17.20;58.70;;;;;;5079243;28;20431;-50
2022/07/16 02:43:25;;;;;;;6.90;6.20;;;17.20;58.90;;;;;;5080136;28;20434;-47
2022/07/16 02:45:51;;;;;;;5.60;5.10;;;17.10;58.90;;;;;;5080500;28;20181;-47
2022/07/16 02:48:17;;;;;;;6.30;5.80;;;17.10;59.20;;;;;;5080575;28;20191;-47
2022/07/16 02:50:42;;;;;;;6.10;5.60;;;17.10;59.30;;;;;;5080680;28;20230;-51
2022/07/16 02:53:09;;;;;;;6.47;5.93;;;17.10;59.50;;;;;;5079944;28;20440;-51
2022/07/16 02:55:35;;;;;;;5.97;5.17;;;17.00;59.50;;;;;;5079803;28;20266;-51
2022/07/16 02:58:01;;;;;;;6.60;5.93;;;17.00;59.60;;;;;;5079637;28;20514;-49
2022/07/16 03:00:28;;;;;;;6.50;5.90;;;17.00;59.80;;;;;;5079629;28;20920;-48
2022/07/16 03:02:54;;;;;;;5.73;5.23;;;17.00;59.90;;;;;;5079237;28;20582;-49
2022/07/16 03:05:20;;;;;;;6.30;5.70;;;16.90;60.00;;;;;;5059400;28;20718;-50
2022/07/16 03:07:46;;;;;;;6.33;5.73;;;16.90;60.20;;;;;;5065326;28;20533;-47
2022/07/16 03:10:12;;;;;;;6.13;5.63;;;16.90;60.50;;;;;;5079968;28;20587;-52
2022/07/16 03:12:40;;;;;;;6.10;5.60;;;16.90;60.60;;;;;;5079690;28;20475;-53
2022/07/16 03:15:07;;;;;;;6.17;5.60;;;16.90;60.80;;;;;;5078974;28;20431;-49
2022/07/16 03:17:32;;;;;;;6.30;5.80;;;16.80;60.90;;;;;;5080029;28;20480;-50
2022/07/16 03:19:58;;;;;;;6.13;5.53;;;16.90;61.20;;;;;;5078722;28;20424;-52
2022/07/16 03:22:24;;;;;;;7.00;6.43;;;16.80;61.20;;;;;;5079903;28;20280;-48
2022/07/16 03:24:50;;;;;;;6.57;5.90;;;16.80;61.30;;;;;;5080368;28;20452;-48
2022/07/16 03:27:15;;;;;;;6.73;6.13;;;16.80;61.50;;;;;;5079798;28;20428;-49
2022/07/16 03:29:41;;;;;;;6.80;6.27;;;16.80;61.60;;;;;;5079689;28;20177;-48
2022/07/16 03:32:07;;;;;;;7.83;5.57;;;16.80;62.00;;;;;;5079055;28;20247;-48
2022/07/16 03:34:33;;;;;;;6.17;5.10;;;16.70;62.00;;;;;;5077935;28;20185;-50
2022/07/16 03:36:59;;;;;;;6.33;5.73;;;16.70;62.30;;;;;;5078356;28;20571;-47
2022/07/16 03:39:25;;;;;;;6.23;5.47;;;16.70;62.60;;;;;;5078241;28;20889;-48
2022/07/16 03:41:50;;;;;;;6.60;5.90;;;16.70;62.90;;;;;;5078468;28;20428;-50
2022/07/16 03:44:16;;;;;;;6.10;5.53;;;16.70;63.10;;;;;;5077444;28;20173;-49
2022/07/16 03:46:42;;;;;;;6.73;6.23;;;16.70;63.20;;;;;;5078030;28;20215;-49
2022/07/16 03:49:08;;;;;;;6.00;5.50;;;16.70;63.20;;;;;;5070943;28;20251;-49
2022/07/16 03:51:34;;;;;;;5.97;5.47;;;16.70;63.20;;;;;;5059407;28;20190;-45
2022/07/16 03:54:01;;;;;;;6.37;5.77;;;16.70;63.40;;;;;;5059499;28;20531;-49
2022/07/16 03:56:26;;;;;;;6.07;5.57;;;16.70;63.40;;;;;;5059354;28;20836;-48
2022/07/16 03:58:52;;;;;;;7.00;6.30;;;16.70;63.60;;;;;;5074831;28;20484;-48
2022/07/16 04:01:18;;;;;;;5.80;5.30;;;16.70;63.60;;;;;;5079166;28;20189;-49
2022/07/16 04:03:44;;;;;;;5.60;5.10;;;16.70;63.70;;;;;;5079460;28;20436;-50
2022/07/16 04:06:09;;;;;;;6.30;5.80;;;16.70;63.80;;;;;;5079432;28;20178;-48
2022/07/16 04:08:35;;;;;;;6.40;5.80;;;16.70;63.70;;;;;;5079344;28;20479;-49
2022/07/16 04:11:02;;;;;;;8.07;5.33;;;16.70;63.70;;;;;;5078264;28;20193;-49
2022/07/16 04:13:28;;;;;;;5.97;5.47;;;16.70;63.80;;;;;;5077834;28;20538;-52
2022/07/16 04:15:54;;;;;;;5.73;5.20;;;16.70;63.70;;;;;;5077640;28;20413;-48
2022/07/16 04:18:20;;;;;;;6.60;6.00;;;16.80;63.90;;;;;;5078512;28;20592;-49
2022/07/16 04:20:46;;;;;;;6.70;5.97;;;16.80;63.90;;;;;;5078280;28;20280;-48
2022/07/16 04:23:12;;;;;;;7.00;6.27;;;16.80;63.90;;;;;;5079061;28;20470;-52
2022/07/16 04:25:37;;;;;;;7.00;5.60;;;16.80;63.80;;;;;;5078154;28;20448;-47
2022/07/16 04:28:03;;;;;;;6.13;5.63;;;16.90;63.80;;;;;;5078573;28;20272;-49
2022/07/16 04:30:29;;;;;;;6.83;6.07;;;16.90;63.60;;;;;;5077950;28;20232;-48
2022/07/16 04:32:56;;;;;;;6.03;5.43;;;16.90;63.60;;;;;;5077295;28;20448;-45
2022/07/16 04:35:22;;;;;;;6.07;5.47;;;17.00;63.60;;;;;;5077800;28;20412;-48
2022/07/16 04:37:48;;;;;;;7.07;5.83;;;17.10;63.40;;;;;;5076303;28;20826;-47
2022/07/16 04:40:14;;;;;;;6.17;5.67;;;17.20;63.30;;;;;;5078442;28;20456;-47
2022/07/16 04:42:40;;;;;;;5.77;5.27;;;17.20;62.80;;;;;;5077398;28;20186;-48
2022/07/16 04:45:07;;;;;;;6.67;6.07;;;17.30;62.50;;;;;;5077199;28;20412;-47
2022/07/16 04:47:33;;;;;;;6.27;5.70;;;17.40;62.40;;;;;;5078072;28;20443;-48
2022/07/16 04:49:59;;;;;;;5.70;5.23;;;17.50;61.90;;;;;;5078605;28;20420;-48
2022/07/16 04:52:24;;;;;;;6.00;5.50;;;17.50;61.50;;;;;;5078381;28;20188;-49
2022/07/16 04:54:50;;;;;;;6.93;5.70;;;17.60;61.30;;;;;;5078288;28;20267;-47
2022/07/16 04:57:16;;;;;;;7.77;5.30;;;17.70;60.90;;;;;;5078799;28;20287;-45
2022/07/16 04:59:41;;;;;;;6.10;5.60;;;17.70;60.60;;;;;;5078718;28;20562;-47
2022/07/16 05:04:51;;;;;;;5.80;5.30;;;17.70;60.00;;;;;;5077211;28;20180;-46
2022/07/16 05:07:16;;;;;;;7.73;5.67;;;17.70;59.80;;;;;;5078226;28;20721;-47
2022/07/16 05:09:42;;;;;;;5.50;5.00;;;17.80;59.80;;;;;;5078748;28;20220;-48
2022/07/16 05:12:08;;;;;;;6.17;5.13;;;17.80;59.80;;;;;;5077810;28;20254;-47
2022/07/16 05:14:33;;;;;;;5.20;4.80;;;17.90;59.40;;;;;;5076677;28;20173;-46
2022/07/16 05:16:59;;;;;;;5.97;5.47;;;17.90;59.20;;;;;;5076681;28;20517;-46
2022/07/16 05:19:24;;;;;;;5.90;5.17;;;18.00;59.10;;;;;;5076707;28;20210;-48
2022/07/16 05:21:50;;;;;;;7.90;5.90;;;18.00;58.90;;;;;;5076214;28;20185;-53
2022/07/16 05:24:16;;;;;;;4.80;4.40;;;18.10;58.70;;;;;;5076464;28;20579;-46
2022/07/16 05:26:41;;;;;;;5.47;5.00;;;18.10;58.50;;;;;;5076713;28;20180;-48
2022/07/16 05:29:07;;;;;;;5.37;4.90;;;18.10;58.30;;;;;;5077427;28;20218;-49
2022/07/16 05:31:33;;;;;;;5.63;5.13;;;18.20;58.20;;;;;;5076705;28;20503;-49
2022/07/16 05:33:58;;;;;;;7.13;4.97;;;18.30;58.20;;;;;;5074256;28;20327;-50
2022/07/16 05:36:24;;;;;;;6.93;6.30;;;18.30;58.00;;;;;;5075356;28;20555;-49
2022/07/16 05:38:50;;;;;;;6.60;5.10;;;18.40;57.70;;;;;;5073825;28;20607;-48
2022/07/16 05:41:16;;;;;;;6.57;4.70;;;18.40;57.10;;;;;;5074263;28;20178;-49
2022/07/16 05:43:41;;;;;;;5.40;4.90;;;18.50;57.10;;;;;;5074082;28;20177;-48
2022/07/16 05:46:07;;;;;;;5.30;4.80;;;18.50;56.90;;;;;;5074445;28;20420;-50
2022/07/16 05:48:32;;;;;;;5.90;5.00;;;18.60;56.80;;;;;;5074269;28;20185;-50
2022/07/16 05:50:58;;;;;;;4.80;4.40;;;18.70;56.70;;;;;;5074523;28;20601;-47
2022/07/16 05:53:23;;;;;;;6.60;4.70;;;18.70;56.60;;;;;;5073649;28;20185;-49
2022/07/16 05:55:49;;;;;;;5.40;4.90;;;18.80;56.30;;;;;;5073320;28;20179;-48
2022/07/16 05:58:15;;;;;;;6.43;5.93;;;18.90;56.20;;;;;;5073423;28;20267;-48
2022/07/16 06:00:40;;;;;;;5.53;4.97;;;18.90;56.00;;;;;;5074464;28;20292;-48
2022/07/16 06:03:07;;;;;;;5.70;4.93;;;19.00;55.70;;;;;;5075086;28;20181;-49
2022/07/16 06:05:33;;;;;;;7.43;4.93;;;19.10;55.60;;;;;;5073707;28;20178;-47
2022/07/16 06:08:00;;;;;;;6.20;5.10;;;19.20;55.50;;;;;;5074811;28;20437;-49
2022/07/16 06:10:25;;;;;;;5.20;4.70;;;19.30;55.30;;;;;;5075098;28;20511;-49
2022/07/16 06:12:51;;;;;;;5.50;5.00;;;19.40;55.20;;;;;;5074329;28;20529;-48
2022/07/16 06:15:17;;;;;;;5.97;4.50;;;19.50;55.00;;;;;;5074930;28;20179;-48
2022/07/16 06:17:42;;;;;;;5.10;4.60;;;19.60;54.80;;;;;;5075123;28;20495;-49
2022/07/16 06:20:09;;;;;;;6.43;4.07;;;19.70;54.60;;;;;;5074461;28;20205;-52
2022/07/16 06:22:35;;;;;;;6.27;4.63;;;19.80;54.10;;;;;;5075525;28;20188;-48
2022/07/16 06:25:01;;;;;;;5.13;4.63;;;19.90;54.10;;;;;;5074039;28;20447;-47
2022/07/16 06:27:26;;;;;;;8.10;4.80;;;20.00;54.00;;;;;;5075215;28;20435;-49
2022/07/16 06:29:52;;;;;;;4.50;4.10;;;20.10;53.70;;;;;;5074110;28;20415;-53
2022/07/16 06:32:18;;;;;;;5.90;4.07;;;20.20;53.40;;;;;;5073439;28;20245;-50
2022/07/16 06:34:43;;;;;;;5.43;3.80;;;20.40;53.20;;;;;;5072949;28;20555;-50
2022/07/16 06:37:09;;;;;;;4.07;3.77;;;20.50;52.60;;;;;;5073016;28;20180;-48
2022/07/16 06:39:35;;;;;;;4.90;4.50;;;20.60;52.00;;;;;;5072336;28;20206;-49
2022/07/16 06:42:00;;;;;;;9.17;3.67;;;20.70;51.80;;;;;;5071308;28;20453;-52
2022/07/16 06:44:26;;;;;;;6.33;4.40;;;20.80;51.70;;;;;;5072635;28;20624;-48
2022/07/16 06:46:53;;;;;;;7.50;5.00;;;20.90;51.00;;;;;;5072666;28;20237;-49
2022/07/16 06:49:18;;;;;;;6.60;4.63;;;21.00;50.70;;;;;;5071915;28;20469;-51
2022/07/16 06:51:44;;;;;;;5.13;3.97;;;21.20;51.00;;;;;;5072737;28;20427;-49
2022/07/16 06:54:10;;;;;;;5.73;3.97;;;21.30;50.70;;;;;;5074695;28;20987;-49
2022/07/16 06:56:36;;;;;;;4.70;3.77;;;21.50;50.50;;;;;;5076380;28;20187;-49
2022/07/16 06:59:01;;;;;;;9.13;3.77;;;21.60;50.30;;;;;;5075362;28;20595;-50
2022/07/16 07:01:27;;;;;;;4.73;3.80;;;21.80;49.20;;;;;;5075936;28;20571;-48
2022/07/16 07:03:53;;;;;;;5.43;3.60;;;22.00;49.40;;;;;;5076631;28;20770;-48
2022/07/16 07:06:18;;;;;;;10.77;3.83;;;22.10;49.10;;;;;;5076830;28;20169;-53
2022/07/16 07:08:44;;;;;;;3.93;3.60;;;22.30;48.10;;;;;;5076270;28;20178;-50
2022/07/16 07:11:10;;;;;;;3.60;3.20;;;22.30;47.40;;;;;;5075935;28;20446;-48
2022/07/16 07:13:37;;;;;;;6.07;3.87;;;22.40;47.50;;;;;;5076024;28;20464;-47
2022/07/16 07:16:03;;;;;;;5.63;3.47;;;22.60;47.60;;;;;;5076010;28;20889;-47
2022/07/16 07:18:30;;;;;;;4.20;3.17;;;22.70;47.30;;;;;;5076757;28;20567;-48
2022/07/16 07:20:56;;;;;;;3.90;3.20;;;22.90;47.60;;;;;;5075756;28;20423;-48
2022/07/16 07:23:22;;;;;;;5.03;3.50;;;23.10;47.30;;;;;;5078015;28;20479;-48
2022/07/16 07:25:47;;;;;;;5.20;3.23;;;23.30;46.70;;;;;;5076784;28;20818;-50
2022/07/16 07:28:14;;;;;;;5.30;3.30;;;23.50;46.50;;;;;;5075980;28;20226;-47
2022/07/16 07:30:40;;;;;;;3.10;2.80;;;23.70;45.30;;;;;;5071360;28;20315;-49
2022/07/16 07:33:06;;;;;;;4.70;3.70;;;23.80;44.90;;;;;;5072289;28;20860;-47
2022/07/16 07:35:32;;;;;;;3.77;3.00;;;24.00;44.40;;;;;;5057246;28;20425;-47
2022/07/16 07:37:58;;;;;;;4.83;3.83;;;24.10;43.90;;;;;;5061101;28;20217;-48
2022/07/16 07:40:24;;;;;;;3.77;3.30;;;24.30;42.90;;;;;;5076927;28;20186;-48
2022/07/16 07:42:49;;;;;;;3.17;2.30;;;24.30;43.50;;;;;;5065179;28;20441;-47
2022/07/16 07:45:15;;;;;;;3.20;2.17;;;24.50;42.60;;;;;;5064971;28;20174;-47
2022/07/16 07:47:41;;;;;;;4.73;3.10;;;24.70;42.60;;;;;;5070994;28;20192;-47
2022/07/16 07:50:07;;;;;;;3.27;2.70;;;24.90;41.80;;;;;;5066582;28;20189;-47
2022/07/16 07:52:33;;;;;;;3.80;2.50;;;25.20;42.50;;;;;;5055089;28;20862;-47
2022/07/16 07:54:59;;;;;;;3.97;3.10;;;25.50;41.40;;;;;;5053941;28;20858;-47
2022/07/16 07:57:25;;;;;;;3.07;2.80;;;25.70;41.30;;;;;;5056350;28;20836;-49
2022/07/16 07:59:50;;;;;;;3.10;2.60;;;25.90;41.30;;;;;;5057660;28;20517;-46
2022/07/16 08:02:16;;;;;;;2.93;2.07;;;26.10;40.80;;;;;;5056800;28;20181;-49
2022/07/16 08:04:42;;;;;;;2.83;2.20;;;26.20;39.90;;;;;;5057226;28;20176;-50
2022/07/16 08:07:09;;;;;;;2.83;2.53;;;26.30;39.00;;;;;;5057514;28;20818;-52
2022/07/16 08:09:35;;;;;;;2.80;2.60;;;26.30;38.80;;;;;;5056943;28;20431;-52
2022/07/16 08:12:00;;;;;;;3.07;2.00;;;26.30;38.90;;;;;;5057115;28;20423;-47
2022/07/16 08:14:26;;;;;;;3.63;2.17;;;26.40;39.10;;;;;;5070506;28;20655;-50
2022/07/16 08:16:52;;;;;;;3.87;2.50;;;26.50;38.80;;;;;;5054714;28;20430;-48
2022/07/16 08:19:17;;;;;;;4.70;2.70;;;26.60;38.70;;;;;;5054221;28;20240;-49
2022/07/16 08:21:43;;;;;;;5.70;2.50;;;26.70;38.60;;;;;;5053627;28;20206;-52
2022/07/16 08:26:53;;;;;;;2.67;2.47;;;26.90;37.60;;;;;;5053445;28;20205;-52
2022/07/16 08:29:18;;;;;;;3.70;3.23;;;27.10;38.10;;;;;;5053859;28;20453;-51
2022/07/16 08:31:44;;;;;;;4.00;3.27;;;27.20;38.10;;;;;;5069904;28;20230;-46
2022/07/16 08:34:09;;;;;;;4.00;3.43;;;27.50;37.80;;;;;;5053789;28;20193;-43
2022/07/16 08:36:36;;;;;;;2.83;2.50;;;27.70;38.30;;;;;;5053651;28;20556;-45
2022/07/16 08:39:02;;;;;;;3.73;2.83;;;27.90;36.90;;;;;;5051179;28;20220;-44
2022/07/16 08:41:28;;;;;;;4.17;2.83;;;28.00;36.70;;;;;;5051210;28;20421;-45
2022/07/16 08:43:53;;;;;;;4.40;3.30;;;28.00;36.50;;;;;;5053209;28;20436;-45
2022/07/16 08:46:20;;;;;;;3.90;3.10;;;28.00;36.50;;;;;;5054136;28;20390;-49
2022/07/16 08:48:50;;;;;;;4.40;3.10;;;28.10;37.00;;;;;;5053138;28;20190;-47
2022/07/16 08:51:20;;;;;;;3.90;3.00;;;28.10;37.00;;;;;;5053023;28;20766;-45
2022/07/16 08:53:46;;;;;;;2.90;2.70;;;28.20;36.90;;;;;;5051886;28;20504;-45
2022/07/16 08:56:12;;;;;;;3.10;2.87;;;28.50;37.40;;;;;;5052361;28;20760;-46
2022/07/16 08:58:37;;;;;;;8.40;3.33;;;28.60;36.00;;;;;;5052419;28;20545;-45
2022/07/16 09:01:03;;;;;;;4.43;2.90;;;28.50;36.30;;;;;;5053467;28;20471;-46
2022/07/16 09:03:28;;;;;;;3.00;2.70;;;28.40;36.80;;;;;;5054113;28;20211;-49
2022/07/16 09:05:54;;;;;;;5.50;3.07;;;28.50;37.30;;;;;;5053432;28;20178;-45
2022/07/16 09:08:20;;;;;;;3.90;2.90;;;28.70;37.60;;;;;;5054035;28;20509;-44
2022/07/16 09:10:46;;;;;;;4.80;2.87;;;28.90;37.10;;;;;;5054354;28;20178;-43
2022/07/16 09:13:12;;;;;;;9.07;3.10;;;29.10;36.40;;;;;;5052763;28;20432;-47
2022/07/16 09:15:40;;;;;;;5.43;3.63;;;29.50;36.50;;;;;;5050137;28;20243;-44
2022/07/16 09:18:10;;;;;;;3.80;2.90;;;29.60;35.40;;;;;;5050179;28;20487;-45
2022/07/16 09:20:43;;;;;;;4.70;2.97;;;29.60;35.70;;;;;;5051916;28;20409;-47
2022/07/16 09:23:19;;;;;;;2.83;2.60;;;29.80;35.60;;;;;;5050620;28;20427;-46
2022/07/16 09:26:15;;;;;;;3.20;2.80;;;30.00;35.50;;;;;;5050290;28;20384;-46
2022/07/16 09:28:43;;;;;;;3.10;2.80;;;30.00;34.70;;;;;;5050946;28;20498;-45
2022/07/16 09:31:09;;;;;;;3.10;2.80;;;30.10;34.20;;;;;;5051101;28;20502;-45
2022/07/16 09:33:35;;;;;;;3.70;3.00;;;30.10;34.40;;;;;;5052848;28;20440;-45
2022/07/16 09:36:10;;;;;;;5.60;2.60;;;30.00;34.20;;;;;;5052833;28;20432;-44
2022/07/16 09:38:49;;;;;;;3.40;2.63;;;30.00;35.10;;;;;;5065573;28;20300;-45
2022/07/16 09:41:15;;;;;;;5.73;2.80;;;30.10;34.00;;;;;;5074130;28;20457;-46
2022/07/16 09:43:42;;;;;;;3.00;2.80;;;30.30;33.80;;;;;;5074986;28;20408;-47
2022/07/16 09:46:08;;;;;;;6.03;2.63;;;30.60;33.90;;;;;;5076454;28;20512;-48
2022/07/16 09:48:37;;;;;;;2.87;2.50;;;30.90;33.80;;;;;;5075795;28;20436;-44
2022/07/16 09:51:20;;;;;;;3.23;2.93;;;31.10;32.60;;;;;;5075869;28;20700;-46
2022/07/16 09:53:47;;;;;;;3.13;2.83;;;31.20;32.80;;;;;;5074234;28;20420;-46
2022/07/16 09:56:18;;;;;;;3.90;2.70;;;31.40;33.50;;;;;;5074949;28;20458;-47
2022/07/16 09:58:50;;;;;;;4.30;2.70;;;31.60;33.10;;;;;;5074575;28;20829;-45
2022/07/16 10:01:16;;;;;;;3.33;2.40;;;31.80;33.40;;;;;;5073373;28;20405;-47
2022/07/16 10:03:43;;;;;;;3.50;2.30;;;32.20;33.50;;;;;;5074551;28;20407;-47
2022/07/16 10:06:09;;;;;;;13.67;3.40;;;32.30;31.60;;;;;;5062276;28;20410;-45
2022/07/16 10:08:35;;;;;;;3.10;2.43;;;32.10;32.10;;;;;;5072398;28;20814;-45
2022/07/16 10:11:01;;;;;;;3.30;2.73;;;32.10;30.50;;;;;;5074878;28;20517;-45
2022/07/16 10:13:28;;;;;;;4.60;2.23;;;31.90;30.10;;;;;;5074097;28;20190;-45
2022/07/16 10:15:54;;;;;;;5.23;2.50;;;31.70;30.90;;;;;;5074145;28;20221;-45
2022/07/16 10:18:35;;;;;;;2.53;2.07;;;31.80;31.50;;;;;;5072210;28;20459;-47
2022/07/16 10:21:22;;;;;;;4.33;2.80;;;31.80;30.70;;;;;;5058189;28;20417;-44
2022/07/16 10:24:15;;;;;;;2.87;2.63;;;31.90;30.70;;;;;;5072298;28;20547;-44
2022/07/16 10:26:41;;;;;;;7.03;2.77;;;32.10;31.80;;;;;;5072600;28;20389;-45
2022/07/16 10:29:07;;;;;;;2.60;2.30;;;32.30;31.00;;;;;;5075298;28;20446;-47
2022/07/16 10:31:41;;;;;;;3.90;2.00;;;32.60;31.00;;;;;;5078950;28;20456;-46
2022/07/16 10:34:13;;;;;;;4.10;2.37;;;32.80;30.20;;;;;;5079063;28;20407;-44
2022/07/16 10:36:54;;;;;;;5.03;2.70;;;33.00;30.00;;;;;;5077604;28;20422;-45
2022/07/16 10:39:22;;;;;;;4.33;2.33;;;33.40;30.10;;;;;;5077430;28;20532;-46
2022/07/16 10:41:49;;;;;;;7.50;3.40;;;33.50;30.00;;;;;;5076759;28;20679;-47
2022/07/16 10:44:15;;;;;;;7.20;2.67;;;33.60;29.80;;;;;;5076947;28;20476;-47
2022/07/16 10:46:57;;;;;;;6.77;2.97;;;33.80;30.70;;;;;;5077698;28;20394;-48
2022/07/16 10:49:25;;;;;;;3.03;2.50;;;34.10;31.30;;;;;;5076923;28;20430;-43
2022/07/16 10:51:56;;;;;;;2.37;2.07;;;34.50;29.70;;;;;;5074905;28;20926;-45
2022/07/16 10:54:26;;;;;;;3.30;2.13;;;34.80;29.10;;;;;;5073580;28;20455;-46
2022/07/16 10:56:52;;;;;;;5.77;2.80;;;34.80;28.50;;;;;;5073394;28;20412;-45
2022/07/16 10:59:21;;;;;;;4.63;2.60;;;34.70;28.30;;;;;;5073827;28;20450;-46
2022/07/16 11:01:51;;;;;;;4.93;2.50;;;34.50;28.50;;;;;;5073617;28;20827;-45
2022/07/16 11:04:18;;;;;;;2.60;2.20;;;34.20;28.90;;;;;;5075371;28;20421;-48
2022/07/16 11:06:50;;;;;;;3.57;2.37;;;34.10;28.80;;;;;;5073538;28;20434;-46
2022/07/16 11:09:23;;;;;;;5.13;2.90;;;34.40;28.50;;;;;;5075369;28;20432;-46
2022/07/16 11:11:49;;;;;;;16.30;3.50;;;34.80;28.70;;;;;;5075475;28;20440;-46
2022/07/16 11:14:15;;;;;;;4.10;2.70;;;35.10;28.30;;;;;;5075721;28;20468;-44
2022/07/16 11:16:51;;;;;;;10.60;3.10;;;35.40;28.40;;;;;;5073778;28;20456;-46
2022/07/16 11:19:17;;;;;;;6.10;3.37;;;35.50;28.10;;;;;;5074198;28;20247;-44
2022/07/16 11:21:56;;;;;;;6.30;2.93;;;35.60;28.10;;;;;;5076273;28;20390;-44
2022/07/16 11:24:23;;;;;;;3.40;2.33;;;35.40;28.40;;;;;;5075860;28;20402;-45
2022/07/16 11:26:52;;;;;;;5.03;2.50;;;35.10;28.60;;;;;;5076619;28;20717;-46
2022/07/16 11:29:20;;;;;;;3.53;2.13;;;34.80;27.90;;;;;;5076160;28;20698;-47
2022/07/16 11:31:46;;;;;;;2.77;2.23;;;34.70;27.90;;;;;;5077382;28;20731;-47
2022/07/16 11:34:13;;;;;;;3.80;2.00;;;34.90;27.90;;;;;;5074432;28;20412;-46
2022/07/16 11:36:44;;;;;;;3.33;2.20;;;35.10;27.90;;;;;;5073271;28;20410;-45
2022/07/16 11:39:16;;;;;;;2.20;2.00;;;35.00;27.70;;;;;;5075538;28;20537;-49
2022/07/16 11:41:46;;;;;;;3.23;2.10;;;35.00;27.40;;;;;;5077006;28;20382;-45
2022/07/16 11:44:13;;;;;;;4.23;2.33;;;35.30;27.20;;;;;;5077512;28;20597;-46
2022/07/16 11:46:53;;;;;;;8.10;2.10;;;35.60;27.50;;;;;;5075825;28;20413;-46
2022/07/16 11:49:31;;;;;;;2.30;2.07;;;35.40;28.00;;;;;;5075112;28;20546;-47
2022/07/16 11:52:02;;;;;;;2.43;1.97;;;35.30;28.00;;;;;;5072662;28;20424;-45
2022/07/16 11:54:30;;;;;;;2.83;2.10;;;35.30;27.40;;;;;;5074790;28;20431;-44
2022/07/16 11:56:57;;;;;;;3.60;2.70;;;35.30;28.00;;;;;;5071681;28;20546;-46
2022/07/16 11:59:27;;;;;;;5.40;2.63;;;35.60;28.00;;;;;;5073166;28;20449;-48
2022/07/16 12:02:07;;;;;;;5.17;1.97;;;35.70;27.80;;;;;;5073902;28;20411;-48
2022/07/16 12:04:38;;;;;;;5.03;2.10;;;35.90;27.60;;;;;;5074543;28;20468;-48
2022/07/16 12:07:29;;;;;;;3.23;1.70;;;36.20;27.80;;;;;;5073556;28;20374;-47
2022/07/16 12:09:58;;;;;;;5.80;2.30;;;36.60;27.80;;;;;;5066369;28;20471;-45
2022/07/16 12:12:30;;;;;;;4.37;2.10;;;36.90;27.80;;;;;;5071229;28;20419;-46
2022/07/16 12:15:03;;;;;;;2.40;1.90;;;36.80;26.70;;;;;;5072513;28;21023;-48
2022/07/16 12:17:37;;;;;;;2.27;1.73;;;36.70;27.00;;;;;;5072568;28;20711;-48
2022/07/16 12:20:17;;;;;;;4.37;2.10;;;36.50;27.10;;;;;;5069043;28;20419;-45
2022/07/16 12:23:06;;;;;;;5.87;2.20;;;36.60;27.10;;;;;;5074353;28;20759;-46
2022/07/16 12:25:35;;;;;;;5.40;2.47;;;36.70;27.10;;;;;;5075005;28;20733;-48
2022/07/16 12:28:11;;;;;;;2.83;1.70;;;37.00;27.00;;;;;;5074116;28;20419;-47
2022/07/16 12:30:45;;;;;;;2.60;1.80;;;37.00;26.40;;;;;;5073880;28;20482;-46
2022/07/16 12:33:21;;;;;;;2.67;2.00;;;36.80;26.50;;;;;;5074991;28;20475;-49
2022/07/16 12:36:06;;;;;;;3.20;2.10;;;36.80;26.80;;;;;;5073843;28;20399;-47
2022/07/16 12:38:52;;;;;;;3.17;1.70;;;36.90;26.40;;;;;;5074050;28;20587;-47
2022/07/16 12:41:22;;;;;;;2.70;2.17;;;36.70;26.30;;;;;;5073956;28;20411;-45
2022/07/16 12:44:18;;;;;;;2.23;1.63;;;36.40;26.40;;;;;;5069513;28;20433;-45
2022/07/16 12:46:51;;;;;;;2.70;1.67;;;36.10;26.10;;;;;;5066185;28;20432;-49
2022/07/16 12:49:22;;;;;;;3.60;1.93;;;36.30;26.70;;;;;;5061857;28;20554;-49
2022/07/16 12:51:51;;;;;;;3.50;1.87;;;36.60;26.90;;;;;;5075316;28;20507;-48
2022/07/16 12:54:18;;;;;;;1.87;1.60;;;37.00;26.90;;;;;;5070650;28;20473;-45